Time;durP1;ratioP1;P1;durP2;ratioP2;P2;SDS_P1;SDS_P2;PMS_P1;PMS_P2;Temp;Humidity;BMP_temperature;BMP_pressure;BME280_temperature;BME280_humidity;BME280_pressure;Samples;Min_cycle;Max_cycle;Signal;HPM_P1;HPM_P2
2022/12/19 00:00:42;;;;;;;42.17;24.33;;;1.90;99.90;;;;;;5009941;28;20209;-74
2022/12/19 00:03:07;;;;;;;32.10;21.27;;;1.90;99.90;;;;;;5009243;28;20185;-73
2022/12/19 00:05:38;;;;;;;41.30;24.90;;;2.00;99.90;;;;;;5009219;28;20205;-74
2022/12/19 00:08:05;;;;;;;34.38;22.33;;;2.00;99.90;;;;;;5010464;28;20185;-74
2022/12/19 00:10:30;;;;;;;40.90;24.27;;;2.00;99.90;;;;;;5009984;28;20419;-73
2022/12/19 00:12:56;;;;;;;38.03;23.27;;;2.00;99.90;;;;;;5008819;28;20167;-73
2022/12/19 00:15:22;;;;;;;36.33;24.00;;;2.10;99.90;;;;;;5009318;28;20181;-73
2022/12/19 00:17:47;;;;;;;41.00;25.20;;;2.10;99.90;;;;;;5008765;28;20581;-74
2022/12/19 00:20:13;;;;;;;39.80;24.57;;;1.90;99.90;;;;;;5008744;28;20206;-73
2022/12/19 00:22:39;;;;;;;42.90;24.87;;;2.00;99.90;;;;;;5008708;28;20178;-73
2022/12/19 00:25:05;;;;;;;36.07;22.77;;;2.00;99.90;;;;;;5008773;28;20705;-73
2022/12/19 00:27:35;;;;;;;34.67;24.13;;;2.10;99.90;;;;;;5008446;28;20178;-73
2022/12/19 00:30:01;;;;;;;36.13;23.80;;;2.10;99.90;;;;;;4994724;28;20217;-73
2022/12/19 00:32:27;;;;;;;38.33;24.17;;;2.10;99.90;;;;;;4992309;28;20170;-72
2022/12/19 00:34:52;;;;;;;35.37;22.90;;;2.10;99.90;;;;;;5009047;28;20882;-73
2022/12/19 00:37:18;;;;;;;36.90;24.30;;;2.10;99.90;;;;;;5008736;28;20204;-73
2022/12/19 00:39:43;;;;;;;30.70;22.97;;;2.10;99.90;;;;;;5008485;28;20182;-73
2022/12/19 00:42:12;;;;;;;34.10;22.48;;;2.10;99.90;;;;;;5009981;28;20182;-73
2022/12/19 00:44:37;;;;;;;32.50;21.90;;;2.20;99.90;;;;;;5008540;28;20537;-73
2022/12/19 00:47:03;;;;;;;29.17;19.83;;;2.20;99.90;;;;;;4992125;28;20206;-73
2022/12/19 00:49:29;;;;;;;31.73;22.33;;;2.20;99.90;;;;;;4992133;28;20174;-73
2022/12/19 00:51:56;;;;;;;35.83;23.37;;;2.30;99.90;;;;;;4991668;28;20612;-73
2022/12/19 00:54:22;;;;;;;38.35;24.52;;;2.30;99.90;;;;;;5009555;28;20576;-73
2022/12/19 00:56:49;;;;;;;36.45;22.55;;;2.30;99.90;;;;;;5008633;28;20881;-73
2022/12/19 00:59:15;;;;;;;36.73;20.70;;;2.40;99.90;;;;;;5009594;28;20182;-73
2022/12/19 01:01:41;;;;;;;43.03;27.73;;;2.40;99.90;;;;;;4991694;28;20198;-74
2022/12/19 01:04:11;;;;;;;33.90;22.75;;;2.40;99.90;;;;;;5008023;28;20189;-73
2022/12/19 01:06:39;;;;;;;33.67;22.58;;;2.40;99.90;;;;;;4992172;28;20202;-74
2022/12/19 01:09:07;;;;;;;37.40;23.70;;;2.40;99.90;;;;;;4993044;28;20181;-73
2022/12/19 01:14:17;;;;;;;33.83;19.77;;;2.50;99.90;;;;;;5012949;28;20173;-74
2022/12/19 01:16:43;;;;;;;33.03;22.77;;;2.60;99.90;;;;;;5012229;28;20205;-73
2022/12/19 01:19:08;;;;;;;30.97;19.60;;;2.60;99.90;;;;;;5012405;28;20169;-73
2022/12/19 01:21:35;;;;;;;28.70;19.90;;;2.60;99.90;;;;;;4995089;28;20209;-73
2022/12/19 01:24:02;;;;;;;36.70;24.75;;;2.70;99.90;;;;;;5012329;28;20174;-73
2022/12/19 01:26:28;;;;;;;31.10;20.55;;;2.70;99.90;;;;;;5013073;28;20263;-72
2022/12/19 01:28:54;;;;;;;33.78;20.80;;;2.70;99.90;;;;;;5013338;28;20172;-73
2022/12/19 01:31:20;;;;;;;32.13;22.13;;;2.80;99.90;;;;;;5012815;28;20863;-74
2022/12/19 01:33:46;;;;;;;31.75;20.30;;;2.70;99.90;;;;;;5013158;28;20220;-72
2022/12/19 01:36:11;;;;;;;29.97;19.50;;;2.80;99.90;;;;;;5011580;28;20671;-73
2022/12/19 01:38:37;;;;;;;36.33;24.67;;;2.80;99.90;;;;;;4995448;28;20178;-73
2022/12/19 01:41:04;;;;;;;43.93;26.80;;;2.80;99.90;;;;;;4995027;28;20198;-73
2022/12/19 01:43:32;;;;;;;37.75;24.42;;;2.80;99.90;;;;;;5011918;28;20639;-74
2022/12/19 01:46:02;;;;;;;38.60;24.05;;;2.70;99.90;;;;;;5013890;28;20198;-73
2022/12/19 01:48:36;;;;;;;34.25;23.38;;;2.80;99.90;;;;;;4995168;28;20208;-73
2022/12/19 01:51:12;;;;;;;40.33;26.65;;;2.70;99.90;;;;;;5011611;28;20206;-73
2022/12/19 01:53:57;;;;;;;37.20;24.48;;;2.80;99.90;;;;;;5011590;28;20174;-73
2022/12/19 01:56:33;;;;;;;31.92;20.90;;;2.80;99.90;;;;;;4995508;28;20261;-73
2022/12/19 01:59:04;;;;;;;36.80;23.88;;;2.80;99.90;;;;;;4995071;28;20656;-73
2022/12/19 02:01:30;;;;;;;33.67;22.15;;;2.80;99.90;;;;;;5010782;28;20198;-73
2022/12/19 02:03:58;;;;;;;34.72;23.60;;;2.90;99.90;;;;;;5010984;28;20174;-73
2022/12/19 02:06:26;;;;;;;39.90;26.60;;;2.90;99.90;;;;;;5011368;28;20205;-73
2022/12/19 02:08:52;;;;;;;30.85;21.48;;;2.90;99.90;;;;;;4995270;28;20265;-74
2022/12/19 02:11:18;;;;;;;34.97;23.20;;;2.90;99.90;;;;;;5029304;28;20194;-73
2022/12/19 02:13:45;;;;;;;36.20;23.83;;;2.90;99.90;;;;;;5028148;28;20178;-73
2022/12/19 02:16:30;;;;;;;37.75;21.45;;;2.90;99.90;;;;;;5012083;28;20585;-73
2022/12/19 02:18:57;;;;;;;33.42;21.30;;;2.90;99.90;;;;;;5010981;28;20630;-73
2022/12/19 02:21:41;;;;;;;35.60;23.67;;;3.00;99.90;;;;;;5011062;28;20214;-73
2022/12/19 02:24:33;;;;;;;35.50;23.38;;;2.90;99.90;;;;;;5027739;28;20589;-73
2022/12/19 02:27:31;;;;;;;34.35;23.98;;;3.00;99.90;;;;;;5027507;28;20229;-74
2022/12/19 02:30:03;;;;;;;34.50;22.75;;;3.00;99.90;;;;;;4974732;28;20225;-73
2022/12/19 02:32:58;;;;;;;32.25;22.08;;;3.00;99.90;;;;;;4959135;28;20233;-74
2022/12/19 02:35:56;;;;;;;35.67;22.85;;;3.00;99.90;;;;;;4974773;28;20182;-74
2022/12/19 02:38:22;;;;;;;32.92;22.25;;;3.00;99.90;;;;;;4958629;28;20185;-74
2022/12/19 02:41:17;;;;;;;36.25;24.00;;;3.00;99.90;;;;;;4990764;28;20195;-74
2022/12/19 02:43:47;;;;;;;34.17;22.30;;;3.00;99.90;;;;;;4990036;28;20217;-74
2022/12/19 02:46:15;;;;;;;35.17;24.98;;;3.00;99.90;;;;;;4958466;28;20690;-73
2022/12/19 02:48:44;;;;;;;36.47;23.63;;;3.00;99.90;;;;;;4959092;28;20171;-74
2022/12/19 02:51:10;;;;;;;32.75;24.00;;;3.00;99.90;;;;;;4990513;28;20190;-73
2022/12/19 02:53:37;;;;;;;31.63;22.23;;;3.00;99.90;;;;;;4974860;28;20542;-73
2022/12/19 02:56:47;;;;;;;39.20;24.70;;;3.00;99.90;;;;;;4990864;28;20179;-73
2022/12/19 02:59:46;;;;;;;34.85;22.40;;;3.00;99.90;;;;;;4975747;28;20612;-74
2022/12/19 03:02:29;;;;;;;31.98;21.42;;;3.10;99.90;;;;;;4991111;28;20171;-74
2022/12/19 03:05:04;;;;;;;35.42;21.05;;;3.10;99.90;;;;;;4991489;28;20546;-73
2022/12/19 03:07:50;;;;;;;34.30;22.20;;;3.10;99.90;;;;;;4974411;28;20175;-73
2022/12/19 03:10:33;;;;;;;35.53;23.50;;;3.10;99.90;;;;;;4957701;28;20680;-74
2022/12/19 03:13:20;;;;;;;29.48;18.20;;;3.10;99.90;;;;;;4990276;28;20185;-74
2022/12/19 03:15:48;;;;;;;36.60;24.02;;;3.10;99.90;;;;;;4958878;28;20179;-73
2022/12/19 03:18:14;;;;;;;34.65;22.23;;;3.20;99.90;;;;;;4990425;28;20175;-74
2022/12/19 03:20:58;;;;;;;35.13;23.27;;;3.20;99.90;;;;;;4990145;28;20292;-73
2022/12/19 03:23:24;;;;;;;44.70;27.25;;;3.20;99.90;;;;;;4991514;28;21080;-73
2022/12/19 03:25:56;;;;;;;32.10;22.10;;;3.10;99.90;;;;;;4990378;28;20199;-74
2022/12/19 03:28:42;;;;;;;33.45;22.00;;;3.20;99.90;;;;;;4974101;28;20175;-73
2022/12/19 03:31:09;;;;;;;39.53;23.73;;;3.20;99.90;;;;;;5006499;28;20741;-73
2022/12/19 03:33:38;;;;;;;44.40;25.58;;;3.10;99.90;;;;;;4989911;28;20183;-73
2022/12/19 03:36:08;;;;;;;37.97;23.58;;;3.10;99.90;;;;;;4989329;28;20179;-73
2022/12/19 03:38:35;;;;;;;33.50;21.63;;;3.10;99.90;;;;;;4992278;28;20194;-73
2022/12/19 03:41:05;;;;;;;34.80;24.63;;;3.20;99.90;;;;;;4989987;28;20250;-74
2022/12/19 03:43:32;;;;;;;38.13;24.52;;;3.10;99.90;;;;;;4989781;28;20179;-73
2022/12/19 03:46:16;;;;;;;34.42;24.02;;;3.10;99.90;;;;;;4991383;28;20211;-73
2022/12/19 03:48:47;;;;;;;36.45;24.02;;;3.10;99.90;;;;;;4973712;28;20187;-73
2022/12/19 03:51:25;;;;;;;42.00;27.80;;;3.10;99.90;;;;;;4973478;28;20199;-73
2022/12/19 03:54:06;;;;;;;37.78;24.80;;;3.10;99.90;;;;;;4991118;28;20221;-74
2022/12/19 03:56:44;;;;;;;38.78;26.45;;;3.20;99.90;;;;;;4989889;28;20206;-73
2022/12/19 03:59:19;;;;;;;38.55;23.35;;;3.10;99.90;;;;;;4989671;28;20226;-74
2022/12/19 04:01:46;;;;;;;41.92;26.90;;;3.20;99.90;;;;;;4989671;28;20605;-73
2022/12/19 04:04:13;;;;;;;39.38;23.35;;;3.10;99.90;;;;;;4973573;28;20534;-73
2022/12/19 04:06:41;;;;;;;38.30;24.65;;;3.20;99.90;;;;;;4989652;28;20198;-74
2022/12/19 04:09:07;;;;;;;32.40;20.27;;;3.20;99.90;;;;;;4989768;28;20174;-74
2022/12/19 04:11:42;;;;;;;38.78;24.98;;;3.20;99.90;;;;;;4990511;28;20625;-73
2022/12/19 04:14:14;;;;;;;40.58;25.55;;;3.20;99.90;;;;;;4991413;28;20186;-73
2022/12/19 04:17:07;;;;;;;35.75;23.35;;;3.10;99.90;;;;;;4974491;28;20221;-73
2022/12/19 04:19:46;;;;;;;33.33;20.88;;;3.20;99.90;;;;;;4973185;28;20210;-73
2022/12/19 04:23:05;;;;;;;36.05;24.55;;;3.30;99.90;;;;;;4990301;28;20175;-73
2022/12/19 04:25:39;;;;;;;38.35;23.50;;;3.20;99.90;;;;;;4973001;28;20341;-73
2022/12/19 04:28:20;;;;;;;32.88;22.65;;;3.30;99.90;;;;;;4973180;28;20171;-73
2022/12/19 04:30:48;;;;;;;29.50;20.58;;;3.30;99.90;;;;;;4988694;28;20774;-73
2022/12/19 04:33:14;;;;;;;38.05;24.60;;;3.30;99.90;;;;;;4994757;28;20307;-73
2022/12/19 04:35:39;;;;;;;34.90;23.20;;;3.40;99.90;;;;;;5008888;28;20617;-74
2022/12/19 04:38:05;;;;;;;40.00;25.70;;;3.40;99.90;;;;;;5008672;28;20509;-74
2022/12/19 04:40:32;;;;;;;41.40;28.10;;;3.40;99.90;;;;;;5010030;28;20980;-73
2022/12/19 04:42:58;;;;;;;36.65;23.10;;;3.30;99.90;;;;;;5008449;28;20174;-73
2022/12/19 04:45:24;;;;;;;38.20;22.23;;;3.40;99.90;;;;;;4992338;28;20204;-73
2022/12/19 04:47:49;;;;;;;30.93;19.97;;;3.50;99.90;;;;;;5008539;28;20285;-74
2022/12/19 04:50:15;;;;;;;36.97;23.90;;;3.50;99.90;;;;;;4992798;28;20194;-73
2022/12/19 04:52:41;;;;;;;39.27;26.10;;;3.50;99.90;;;;;;5012702;28;20177;-73
2022/12/19 04:55:07;;;;;;;34.20;23.03;;;3.50;99.90;;;;;;5008847;28;20177;-73
2022/12/19 04:57:33;;;;;;;33.83;22.95;;;3.50;99.90;;;;;;5008507;28;20174;-73
2022/12/19 04:59:58;;;;;;;32.10;22.10;;;3.50;99.90;;;;;;5008596;28;20205;-73
2022/12/19 05:02:24;;;;;;;36.93;25.00;;;3.50;99.90;;;;;;5008497;28;20243;-73
2022/12/19 05:04:50;;;;;;;34.80;23.80;;;3.60;99.90;;;;;;5008506;28;20220;-74
2022/12/19 05:07:19;;;;;;;34.45;23.27;;;3.60;99.90;;;;;;4992362;28;20212;-73
2022/12/19 05:09:44;;;;;;;36.70;22.73;;;3.60;99.90;;;;;;5008159;28;20532;-73
2022/12/19 05:12:10;;;;;;;38.20;24.17;;;3.60;99.90;;;;;;5008654;28;20170;-73
2022/12/19 05:14:36;;;;;;;37.90;25.93;;;3.60;99.90;;;;;;5008247;28;20261;-74
2022/12/19 05:17:01;;;;;;;37.33;23.30;;;3.60;99.90;;;;;;5008504;28;20184;-74
2022/12/19 05:19:27;;;;;;;30.03;21.77;;;3.70;99.90;;;;;;5008259;28;20217;-73
2022/12/19 05:21:53;;;;;;;31.17;22.27;;;3.70;99.90;;;;;;5009515;28;20198;-72
2022/12/19 05:24:19;;;;;;;35.53;21.40;;;3.70;99.90;;;;;;5008189;28;20949;-73
2022/12/19 05:26:44;;;;;;;32.43;22.93;;;3.80;99.90;;;;;;5009600;28;20749;-73
2022/12/19 05:29:10;;;;;;;37.30;25.40;;;3.80;99.90;;;;;;5010900;28;20559;-73
2022/12/19 05:31:36;;;;;;;39.23;26.00;;;3.90;99.90;;;;;;5008827;28;20190;-73
2022/12/19 05:34:02;;;;;;;35.90;24.90;;;3.90;99.90;;;;;;5009627;28;20171;-74
2022/12/19 05:36:27;;;;;;;36.43;23.30;;;3.90;99.90;;;;;;5007894;28;20275;-74
2022/12/19 05:38:53;;;;;;;36.37;26.10;;;3.90;99.90;;;;;;5008038;28;20202;-73
2022/12/19 05:41:19;;;;;;;27.93;19.63;;;3.90;99.90;;;;;;5007545;28;21214;-73
2022/12/19 05:43:51;;;;;;;33.05;20.48;;;4.00;99.90;;;;;;4991814;28;20182;-73
2022/12/19 05:46:17;;;;;;;31.52;19.70;;;4.00;99.90;;;;;;5007692;28;20236;-73
2022/12/19 05:48:42;;;;;;;37.00;24.67;;;4.10;99.90;;;;;;5009530;28;20242;-73
2022/12/19 05:51:08;;;;;;;33.47;24.90;;;4.10;99.90;;;;;;4991337;28;20293;-73
2022/12/19 05:53:35;;;;;;;33.83;20.73;;;4.20;99.90;;;;;;5008074;28;20182;-73
2022/12/19 05:56:05;;;;;;;32.53;22.35;;;4.20;99.90;;;;;;5009118;28;20336;-73
2022/12/19 05:58:32;;;;;;;29.20;19.23;;;4.20;99.90;;;;;;5008067;28;20178;-73
2022/12/19 06:01:06;;;;;;;31.48;22.30;;;4.30;99.90;;;;;;5012446;28;20198;-73
2022/12/19 06:03:31;;;;;;;31.02;21.17;;;4.30;99.90;;;;;;5012945;28;20224;-74
2022/12/19 06:06:01;;;;;;;35.10;24.50;;;4.30;99.90;;;;;;5014864;28;20457;-74
2022/12/19 06:08:26;;;;;;;34.67;24.38;;;4.30;99.90;;;;;;5015431;28;20181;-74
2022/12/19 06:10:52;;;;;;;36.90;24.73;;;4.40;99.90;;;;;;5011239;28;20191;-73
2022/12/19 06:13:18;;;;;;;33.97;24.60;;;4.30;99.90;;;;;;4994538;28;20176;-73
2022/12/19 06:15:43;;;;;;;32.00;21.33;;;4.30;99.90;;;;;;5011480;28;20293;-74
2022/12/19 06:18:09;;;;;;;34.70;22.13;;;4.40;99.90;;;;;;4994899;28;21263;-74
2022/12/19 06:20:35;;;;;;;29.70;19.27;;;4.50;99.90;;;;;;5011266;28;20217;-74
2022/12/19 06:23:01;;;;;;;31.30;20.97;;;4.60;99.90;;;;;;5011295;28;20186;-74
2022/12/19 06:25:26;;;;;;;33.40;21.80;;;4.50;99.90;;;;;;5011410;28;20210;-73
2022/12/19 06:27:52;;;;;;;28.03;19.30;;;4.60;99.90;;;;;;5011044;28;20577;-74
2022/12/19 06:30:18;;;;;;;29.40;22.67;;;4.60;99.90;;;;;;5011394;28;20194;-73
2022/12/19 06:32:43;;;;;;;31.13;19.40;;;4.60;99.90;;;;;;5027414;28;20175;-73
2022/12/19 06:35:09;;;;;;;33.20;23.17;;;4.60;99.90;;;;;;5012328;28;20174;-74
2022/12/19 06:37:34;;;;;;;27.50;21.53;;;4.70;99.90;;;;;;5011120;28;20229;-74
2022/12/19 06:40:00;;;;;;;33.23;24.03;;;4.70;99.90;;;;;;5010701;28;20236;-74
2022/12/19 06:42:26;;;;;;;31.50;21.63;;;4.70;99.90;;;;;;5012200;28;20158;-74
2022/12/19 06:44:53;;;;;;;30.40;21.53;;;4.70;99.90;;;;;;5012456;28;20657;-74
2022/12/19 06:47:20;;;;;;;30.10;18.95;;;4.80;99.90;;;;;;4994373;28;20205;-74
2022/12/19 06:49:47;;;;;;;31.17;21.15;;;4.80;99.90;;;;;;5011644;28;20650;-73
2022/12/19 06:52:13;;;;;;;28.63;20.33;;;4.90;99.90;;;;;;5010466;28;20261;-73
2022/12/19 06:54:40;;;;;;;35.83;22.63;;;4.80;99.90;;;;;;5010345;28;20201;-73
2022/12/19 06:57:06;;;;;;;28.50;18.40;;;4.90;99.90;;;;;;5010540;28;20175;-73
2022/12/19 06:59:34;;;;;;;25.90;19.15;;;4.90;99.90;;;;;;5009821;28;20193;-73
2022/12/19 07:02:27;;;;;;;26.20;20.40;;;5.00;99.90;;;;;;4993718;28;20199;-75
2022/12/19 07:05:05;;;;;;;30.67;21.30;;;5.00;99.90;;;;;;5009659;28;20198;-73
2022/12/19 07:07:31;;;;;;;31.05;21.10;;;4.90;99.90;;;;;;5009803;28;20174;-73
2022/12/19 07:09:57;;;;;;;32.17;22.73;;;4.90;99.90;;;;;;5010409;28;20210;-73
2022/12/19 07:12:23;;;;;;;34.97;22.70;;;4.90;99.90;;;;;;5009243;28;20586;-73
2022/12/19 07:14:48;;;;;;;34.63;23.87;;;4.90;99.90;;;;;;5011376;28;20253;-74
2022/12/19 07:17:14;;;;;;;28.50;22.80;;;4.90;99.90;;;;;;5011062;28;21395;-74
2022/12/19 07:19:41;;;;;;;31.65;20.10;;;4.90;99.90;;;;;;5009981;28;20627;-74
2022/12/19 07:22:07;;;;;;;30.40;20.88;;;4.90;99.90;;;;;;5012543;28;20256;-73
2022/12/19 07:24:34;;;;;;;28.15;20.52;;;4.90;99.90;;;;;;5011138;28;20166;-73
2022/12/19 07:27:00;;;;;;;26.85;20.15;;;4.90;99.90;;;;;;5010942;28;20600;-73
2022/12/19 07:29:27;;;;;;;31.70;23.27;;;4.90;99.90;;;;;;5009778;28;20789;-73
2022/12/19 07:31:53;;;;;;;28.37;19.23;;;4.90;99.90;;;;;;5009227;28;20286;-73
2022/12/19 07:34:18;;;;;;;28.83;22.02;;;4.90;99.90;;;;;;5010438;28;20261;-74
2022/12/19 07:36:44;;;;;;;33.13;22.40;;;4.80;99.90;;;;;;5009429;28;20261;-74
2022/12/19 07:39:10;;;;;;;35.60;22.47;;;4.90;99.90;;;;;;5008458;28;20585;-74
2022/12/19 07:41:37;;;;;;;30.23;22.30;;;4.90;99.90;;;;;;5007951;28;21177;-74
2022/12/19 07:44:04;;;;;;;30.35;20.88;;;4.90;99.90;;;;;;5008569;28;20178;-74
2022/12/19 07:46:29;;;;;;;30.80;21.92;;;5.00;99.90;;;;;;5007453;28;20569;-74
2022/12/19 07:48:57;;;;;;;26.27;19.00;;;5.00;99.90;;;;;;5009271;28;20166;-74
2022/12/19 07:51:23;;;;;;;25.63;19.23;;;5.00;99.90;;;;;;5008020;28;20201;-74
2022/12/19 07:53:48;;;;;;;27.40;19.50;;;5.00;99.90;;;;;;5008885;28;20174;-74
2022/12/19 07:56:14;;;;;;;28.40;20.40;;;5.10;99.90;;;;;;5010078;28;20573;-73
2022/12/19 07:58:40;;;;;;;22.33;18.57;;;5.10;99.90;;;;;;5010679;28;20651;-74
2022/12/19 08:01:06;;;;;;;31.80;20.60;;;5.10;99.90;;;;;;5009658;28;20190;-74
2022/12/19 08:03:32;;;;;;;30.60;20.17;;;5.10;99.90;;;;;;5008875;28;20979;-73
2022/12/19 08:06:00;;;;;;;26.60;19.50;;;5.20;99.90;;;;;;5009338;28;20289;-74
2022/12/19 08:08:26;;;;;;;30.08;20.33;;;5.20;99.90;;;;;;5008938;28;20224;-74
2022/12/19 08:10:52;;;;;;;25.73;18.58;;;5.20;99.90;;;;;;5008201;28;20289;-74
2022/12/19 08:13:17;;;;;;;35.40;23.90;;;5.30;99.90;;;;;;4992021;28;20265;-73
2022/12/19 08:15:43;;;;;;;27.10;18.30;;;5.30;99.90;;;;;;5008823;28;20174;-74
2022/12/19 08:18:09;;;;;;;31.10;22.80;;;5.30;99.90;;;;;;4992124;28;20277;-74
2022/12/19 08:20:34;;;;;;;37.33;24.47;;;5.30;99.90;;;;;;5009286;28;20543;-74
2022/12/19 08:23:00;;;;;;;27.30;21.17;;;5.30;99.90;;;;;;5007628;28;20519;-75
2022/12/19 08:25:26;;;;;;;33.92;22.20;;;5.30;99.90;;;;;;5008389;28;20213;-76
2022/12/19 08:27:52;;;;;;;30.30;21.57;;;5.40;99.90;;;;;;5009589;28;20170;-75
2022/12/19 08:30:18;;;;;;;30.30;21.47;;;5.50;99.90;;;;;;5007693;28;20609;-74
2022/12/19 08:32:44;;;;;;;32.27;22.10;;;5.50;99.90;;;;;;5008425;28;20173;-74
2022/12/19 08:35:10;;;;;;;29.15;20.70;;;5.50;99.90;;;;;;5007714;28;20174;-74
2022/12/19 08:37:36;;;;;;;23.10;17.17;;;5.60;99.90;;;;;;5009333;28;20271;-74
2022/12/19 08:40:02;;;;;;;31.17;20.40;;;5.60;99.90;;;;;;5008923;28;20171;-74
2022/12/19 08:42:28;;;;;;;31.73;22.50;;;5.60;99.90;;;;;;5003274;28;20174;-74
2022/12/19 08:44:53;;;;;;;25.40;18.37;;;5.60;99.90;;;;;;5007929;28;20174;-73
2022/12/19 08:47:19;;;;;;;25.23;18.63;;;5.70;99.90;;;;;;5008601;28;20715;-74
2022/12/19 08:49:45;;;;;;;23.13;17.37;;;5.70;99.90;;;;;;5008433;28;20181;-73
2022/12/19 08:52:11;;;;;;;24.75;17.73;;;5.70;99.90;;;;;;4991494;28;20331;-73
2022/12/19 08:54:37;;;;;;;24.90;17.93;;;5.70;99.90;;;;;;5008430;28;20167;-73
2022/12/19 08:57:03;;;;;;;25.90;18.63;;;5.70;99.90;;;;;;5008333;28;20174;-74
2022/12/19 08:59:28;;;;;;;25.47;18.00;;;5.70;99.90;;;;;;5008566;28;20209;-74
2022/12/19 09:01:54;;;;;;;22.60;17.30;;;5.80;99.90;;;;;;5007522;28;20197;-73
2022/12/19 09:04:20;;;;;;;29.30;20.50;;;5.80;99.90;;;;;;5009536;28;20647;-73
2022/12/19 09:06:46;;;;;;;26.42;18.55;;;5.80;99.90;;;;;;5009842;28;20225;-73
2022/12/19 09:09:11;;;;;;;23.33;18.20;;;5.80;99.90;;;;;;5009359;28;20175;-73
2022/12/19 09:11:37;;;;;;;31.43;20.67;;;5.80;99.90;;;;;;5007569;28;20297;-73
2022/12/19 09:14:03;;;;;;;27.10;19.13;;;5.80;99.90;;;;;;5009880;28;20182;-73
2022/12/19 09:16:29;;;;;;;31.95;20.92;;;5.80;99.90;;;;;;5009701;28;20526;-73
2022/12/19 09:18:57;;;;;;;27.50;20.30;;;5.80;99.90;;;;;;5009072;28;20177;-73
2022/12/19 09:21:25;;;;;;;28.60;19.42;;;5.80;99.90;;;;;;5008699;28;20601;-73
2022/12/19 09:23:57;;;;;;;35.17;24.55;;;5.80;99.90;;;;;;5009059;28;20182;-74
2022/12/19 09:26:24;;;;;;;30.35;21.23;;;5.80;99.90;;;;;;5007762;28;20205;-74
2022/12/19 09:28:50;;;;;;;36.88;24.13;;;5.80;99.90;;;;;;5008542;28;20171;-73
2022/12/19 09:31:19;;;;;;;29.40;21.23;;;5.70;99.90;;;;;;5007944;28;20228;-73
2022/12/19 09:33:45;;;;;;;32.90;23.65;;;5.70;99.90;;;;;;5013262;28;20170;-74
2022/12/19 09:36:22;;;;;;;30.08;21.00;;;5.80;99.90;;;;;;5011337;28;20696;-74
2022/12/19 09:38:48;;;;;;;28.15;19.70;;;5.80;99.90;;;;;;5012377;28;20673;-73
2022/12/19 09:41:35;;;;;;;30.40;21.38;;;5.80;99.90;;;;;;5011568;28;20198;-74
2022/12/19 09:44:31;;;;;;;28.83;20.42;;;5.80;99.90;;;;;;4978768;28;20553;-74
2022/12/19 09:47:13;;;;;;;32.58;22.45;;;5.90;99.90;;;;;;5011182;28;20216;-73
2022/12/19 09:49:44;;;;;;;30.52;23.00;;;5.80;99.90;;;;;;5005030;28;20170;-74
2022/12/19 09:52:09;;;;;;;26.70;20.15;;;5.80;99.90;;;;;;5013181;28;20202;-73
2022/12/19 09:54:53;;;;;;;32.33;22.83;;;5.80;99.90;;;;;;5011338;28;20178;-73
2022/12/19 09:57:22;;;;;;;29.35;21.98;;;5.80;99.90;;;;;;5012574;28;20338;-74
2022/12/19 10:00:10;;;;;;;32.80;20.65;;;5.90;99.90;;;;;;5012086;28;20177;-73
2022/12/19 10:03:24;;;;;;;30.35;22.55;;;5.80;99.90;;;;;;4993647;28;20183;-73
2022/12/19 10:05:55;;;;;;;33.65;23.15;;;5.80;99.90;;;;;;4918502;29;20233;-74
2022/12/19 10:08:36;;;;;;;31.85;20.88;;;5.80;99.90;;;;;;5004277;28;20264;-74
2022/12/19 10:11:28;;;;;;;34.22;22.50;;;5.90;99.90;;;;;;5023822;28;20210;-74
2022/12/19 10:14:28;;;;;;;26.30;19.65;;;5.80;99.90;;;;;;5009917;28;20190;-73
2022/12/19 10:17:11;;;;;;;30.75;21.33;;;5.90;99.90;;;;;;4993912;28;20202;-74
2022/12/19 10:19:52;;;;;;;29.48;21.80;;;5.90;99.90;;;;;;5011561;28;20248;-74
2022/12/19 10:22:32;;;;;;;31.45;20.70;;;5.90;99.90;;;;;;5010996;28;20642;-75
2022/12/19 10:25:05;;;;;;;28.83;24.08;;;5.90;99.90;;;;;;5011945;28;20182;-74
2022/12/19 10:27:43;;;;;;;25.65;19.13;;;5.90;99.90;;;;;;5010881;28;20580;-74
2022/12/19 10:30:15;;;;;;;26.50;20.67;;;6.00;99.90;;;;;;4995582;28;20186;-74
2022/12/19 10:32:40;;;;;;;26.42;20.65;;;6.00;99.90;;;;;;5011842;28;20180;-75
2022/12/19 10:35:17;;;;;;;28.73;20.57;;;6.00;99.90;;;;;;5011786;28;20635;-74
2022/12/19 10:38:06;;;;;;;24.98;19.33;;;6.10;99.90;;;;;;5010652;28;20174;-74
2022/12/19 10:40:46;;;;;;;30.40;22.23;;;6.10;99.90;;;;;;4993354;28;20194;-74
2022/12/19 10:43:15;;;;;;;31.70;21.00;;;6.10;99.90;;;;;;4994225;28;20178;-74
2022/12/19 10:45:50;;;;;;;25.90;20.60;;;6.00;99.90;;;;;;5009838;28;20198;-74
2022/12/19 10:48:19;;;;;;;28.25;19.23;;;6.10;99.90;;;;;;5011260;28;20253;-74
2022/12/19 10:50:45;;;;;;;24.83;17.30;;;6.20;99.90;;;;;;5011142;28;20213;-74
2022/12/19 10:53:12;;;;;;;29.55;20.80;;;6.20;99.90;;;;;;5010066;28;20274;-74
2022/12/19 10:55:43;;;;;;;28.77;19.55;;;6.30;99.90;;;;;;5009845;28;20177;-73
2022/12/19 10:58:25;;;;;;;32.38;23.05;;;6.20;99.90;;;;;;5010315;28;20174;-73
2022/12/19 11:01:04;;;;;;;30.40;21.30;;;6.10;99.90;;;;;;5009839;28;20214;-73
2022/12/19 11:03:31;;;;;;;27.50;21.30;;;6.20;99.90;;;;;;5011218;28;20166;-73
2022/12/19 11:05:58;;;;;;;25.75;20.38;;;6.30;99.90;;;;;;5013259;28;20206;-74
2022/12/19 11:08:31;;;;;;;29.00;20.85;;;6.30;99.90;;;;;;5010112;28;20174;-74
2022/12/19 11:11:03;;;;;;;28.38;21.25;;;6.30;99.90;;;;;;5006239;28;20198;-74
2022/12/19 11:13:43;;;;;;;27.20;19.80;;;6.40;99.90;;;;;;5009538;28;20178;-74
2022/12/19 11:16:09;;;;;;;26.33;18.42;;;6.40;99.90;;;;;;5011107;28;20620;-76
2022/12/19 11:18:46;;;;;;;23.80;17.30;;;6.40;99.90;;;;;;4994178;28;20261;-75
2022/12/19 11:21:29;;;;;;;25.33;18.92;;;6.50;99.90;;;;;;5010402;28;20217;-74
2022/12/19 11:23:58;;;;;;;28.63;18.73;;;6.50;99.90;;;;;;5000506;28;20182;-75
2022/12/19 11:26:39;;;;;;;29.90;19.65;;;6.50;99.90;;;;;;4991278;28;20214;-74
2022/12/19 11:29:45;;;;;;;24.95;18.30;;;6.60;99.90;;;;;;5006653;28;20205;-75
2022/12/19 11:32:22;;;;;;;26.15;18.92;;;6.60;99.90;;;;;;4988591;28;20293;-74
2022/12/19 11:34:49;;;;;;;29.40;19.98;;;6.60;99.90;;;;;;4991436;28;20198;-74
2022/12/19 11:37:52;;;;;;;28.13;20.70;;;6.60;99.90;;;;;;5006641;28;20694;-75
2022/12/19 11:40:33;;;;;;;24.13;19.38;;;6.60;99.90;;;;;;4983861;28;20240;-74
2022/12/19 11:43:06;;;;;;;25.88;20.77;;;6.60;99.90;;;;;;4989713;28;20796;-74
2022/12/19 11:45:41;;;;;;;26.45;19.55;;;6.70;99.90;;;;;;4989820;28;20233;-74
2022/12/19 11:48:23;;;;;;;29.63;21.83;;;6.70;99.90;;;;;;5002638;28;20186;-74
2022/12/19 11:51:00;;;;;;;28.10;19.52;;;6.70;99.90;;;;;;5002124;28;20199;-75
2022/12/19 11:53:34;;;;;;;29.30;21.25;;;6.80;99.90;;;;;;4996049;28;20166;-75
2022/12/19 11:56:08;;;;;;;27.83;19.60;;;6.80;99.90;;;;;;5011761;28;20175;-75
2022/12/19 11:58:33;;;;;;;24.17;17.63;;;6.90;99.90;;;;;;5029445;28;20178;-75
2022/12/19 12:01:07;;;;;;;30.40;21.00;;;6.90;99.90;;;;;;5023625;28;20191;-74
2022/12/19 12:03:45;;;;;;;24.05;19.58;;;6.90;99.90;;;;;;5006821;28;20581;-74
2022/12/19 12:06:16;;;;;;;20.67;15.50;;;6.90;99.90;;;;;;4990445;28;20210;-74
2022/12/19 12:08:45;;;;;;;24.35;16.33;;;7.00;99.90;;;;;;4989931;28;20185;-74
2022/12/19 12:11:22;;;;;;;22.27;18.00;;;7.10;99.90;;;;;;4994179;28;20190;-75
2022/12/19 12:14:14;;;;;;;19.98;15.55;;;7.00;99.90;;;;;;4992491;28;20200;-73
2022/12/19 12:17:16;;;;;;;22.75;17.40;;;7.10;99.90;;;;;;4990756;28;20258;-73
2022/12/19 12:20:24;;;;;;;25.30;18.08;;;7.10;99.90;;;;;;4988886;28;20186;-74
2022/12/19 12:22:55;;;;;;;24.60;18.00;;;7.20;99.90;;;;;;4992709;28;20642;-74
2022/12/19 12:26:03;;;;;;;24.00;18.67;;;7.30;99.90;;;;;;5005358;28;20266;-74
2022/12/19 12:28:47;;;;;;;17.83;15.23;;;7.30;99.90;;;;;;4996080;28;20181;-74
2022/12/19 12:31:34;;;;;;;17.88;13.88;;;7.40;99.90;;;;;;4991466;28;20192;-74
2022/12/19 12:34:09;;;;;;;22.77;16.33;;;7.40;99.90;;;;;;5008873;28;20175;-73
2022/12/19 12:37:02;;;;;;;22.20;16.40;;;7.50;99.90;;;;;;5008327;28;20177;-74
2022/12/19 12:39:56;;;;;;;19.75;15.32;;;7.60;99.90;;;;;;5008809;28;20515;-74
2022/12/19 12:42:57;;;;;;;23.55;17.38;;;7.60;99.90;;;;;;5007890;28;20178;-73
2022/12/19 12:45:40;;;;;;;21.77;16.10;;;7.60;99.90;;;;;;5008800;28;20173;-73
2022/12/19 12:48:35;;;;;;;19.95;16.27;;;7.70;99.90;;;;;;5008143;28;20533;-74
2022/12/19 12:51:01;;;;;;;20.52;14.15;;;7.70;99.90;;;;;;5009275;28;20190;-74
2022/12/19 12:53:33;;;;;;;18.85;14.82;;;7.70;99.90;;;;;;5007443;28;20228;-75
2022/12/19 12:56:02;;;;;;;17.75;13.15;;;7.70;99.90;;;;;;5008033;28;20178;-74
2022/12/19 12:58:50;;;;;;;16.63;11.82;;;7.80;99.90;;;;;;5025296;28;20825;-74
2022/12/19 13:01:28;;;;;;;22.40;15.35;;;7.80;99.90;;;;;;5008840;28;20186;-75